sensor_id;sensor_type;location;lat;lon;timestamp;P1;durP1;ratioP1;P2;durP2;ratioP2
4808;SDS011;2418;49.930;8.606;2024-01-10T00:02:18;15.23;;;9.88;;
4808;SDS011;2418;49.930;8.606;2024-01-10T00:04:44;20.02;;;10.65;;
4808;SDS011;2418;49.930;8.606;2024-01-10T00:07:10;13.88;;;8.77;;
4808;SDS011;2418;49.930;8.606;2024-01-10T00:09:36;22.48;;;10.93;;
4808;SDS011;2418;49.930;8.606;2024-01-10T00:12:02;24.38;;;11.95;;
4808;SDS011;2418;49.930;8.606;2024-01-10T00:14:28;27.48;;;12.77;;
4808;SDS011;2418;49.930;8.606;2024-01-10T00:16:54;15.77;;;9.70;;
4808;SDS011;2418;49.930;8.606;2024-01-10T00:19:20;20.57;;;9.37;;
4808;SDS011;2418;49.930;8.606;2024-01-10T00:21:46;23.05;;;13.65;;
4808;SDS011;2418;49.930;8.606;2024-01-10T00:24:12;22.37;;;12.63;;
4808;SDS011;2418;49.930;8.606;2024-01-10T00:26:38;25.25;;;13.18;;
4808;SDS011;2418;49.930;8.606;2024-01-10T00:29:04;21.90;;;9.93;;
4808;SDS011;2418;49.930;8.606;2024-01-10T00:31:30;15.73;;;9.52;;
4808;SDS011;2418;49.930;8.606;2024-01-10T00:33:56;22.80;;;12.77;;
4808;SDS011;2418;49.930;8.606;2024-01-10T00:36:22;28.15;;;13.63;;
4808;SDS011;2418;49.930;8.606;2024-01-10T00:38:48;24.70;;;11.27;;
4808;SDS011;2418;49.930;8.606;2024-01-10T00:41:14;23.50;;;12.20;;
4808;SDS011;2418;49.930;8.606;2024-01-10T00:43:40;28.53;;;12.73;;
4808;SDS011;2418;49.930;8.606;2024-01-10T00:46:06;22.15;;;10.73;;
4808;SDS011;2418;49.930;8.606;2024-01-10T00:48:32;29.37;;;13.27;;
4808;SDS011;2418;49.930;8.606;2024-01-10T00:50:59;30.88;;;14.25;;
4808;SDS011;2418;49.930;8.606;2024-01-10T00:53:25;23.45;;;12.43;;
4808;SDS011;2418;49.930;8.606;2024-01-10T00:55:51;26.38;;;12.15;;
4808;SDS011;2418;49.930;8.606;2024-01-10T00:58:17;25.13;;;12.07;;
4808;SDS011;2418;49.930;8.606;2024-01-10T01:00:43;27.08;;;11.50;;
4808;SDS011;2418;49.930;8.606;2024-01-10T01:03:09;22.15;;;13.07;;
4808;SDS011;2418;49.930;8.606;2024-01-10T01:05:35;23.50;;;12.85;;
4808;SDS011;2418;49.930;8.606;2024-01-10T01:08:01;16.50;;;10.10;;
4808;SDS011;2418;49.930;8.606;2024-01-10T01:10:28;25.33;;;11.75;;
4808;SDS011;2418;49.930;8.606;2024-01-10T01:12:53;19.88;;;10.57;;
4808;SDS011;2418;49.930;8.606;2024-01-10T01:15:20;25.60;;;13.52;;
4808;SDS011;2418;49.930;8.606;2024-01-10T01:17:46;34.13;;;14.90;;
4808;SDS011;2418;49.930;8.606;2024-01-10T01:20:12;19.15;;;10.60;;
4808;SDS011;2418;49.930;8.606;2024-01-10T01:22:38;27.40;;;11.43;;
4808;SDS011;2418;49.930;8.606;2024-01-10T01:25:04;30.25;;;13.80;;
4808;SDS011;2418;49.930;8.606;2024-01-10T01:27:30;26.30;;;14.02;;
4808;SDS011;2418;49.930;8.606;2024-01-10T01:29:56;26.17;;;13.00;;
4808;SDS011;2418;49.930;8.606;2024-01-10T01:32:22;28.05;;;13.90;;
4808;SDS011;2418;49.930;8.606;2024-01-10T01:34:48;29.85;;;15.27;;
4808;SDS011;2418;49.930;8.606;2024-01-10T01:37:13;31.83;;;15.00;;
4808;SDS011;2418;49.930;8.606;2024-01-10T01:39:39;28.40;;;13.57;;
4808;SDS011;2418;49.930;8.606;2024-01-10T01:42:05;25.57;;;14.00;;
4808;SDS011;2418;49.930;8.606;2024-01-10T01:44:31;23.30;;;12.77;;
4808;SDS011;2418;49.930;8.606;2024-01-10T01:46:57;30.53;;;14.87;;
4808;SDS011;2418;49.930;8.606;2024-01-10T01:49:24;32.38;;;15.77;;
4808;SDS011;2418;49.930;8.606;2024-01-10T01:51:50;35.92;;;14.82;;
4808;SDS011;2418;49.930;8.606;2024-01-10T01:54:16;29.98;;;15.20;;
4808;SDS011;2418;49.930;8.606;2024-01-10T01:56:42;29.75;;;15.60;;
4808;SDS011;2418;49.930;8.606;2024-01-10T01:59:09;31.05;;;14.82;;
4808;SDS011;2418;49.930;8.606;2024-01-10T02:01:36;25.08;;;12.77;;
4808;SDS011;2418;49.930;8.606;2024-01-10T02:04:01;27.98;;;13.68;;
4808;SDS011;2418;49.930;8.606;2024-01-10T02:06:28;28.52;;;13.13;;
4808;SDS011;2418;49.930;8.606;2024-01-10T02:08:54;25.00;;;13.10;;
4808;SDS011;2418;49.930;8.606;2024-01-10T02:11:21;29.83;;;14.35;;
4808;SDS011;2418;49.930;8.606;2024-01-10T02:13:47;32.28;;;15.93;;
4808;SDS011;2418;49.930;8.606;2024-01-10T02:16:13;19.42;;;11.68;;
4808;SDS011;2418;49.930;8.606;2024-01-10T02:18:39;23.63;;;12.90;;
4808;SDS011;2418;49.930;8.606;2024-01-10T02:21:05;32.65;;;15.23;;
4808;SDS011;2418;49.930;8.606;2024-01-10T02:23:31;34.13;;;16.00;;
4808;SDS011;2418;49.930;8.606;2024-01-10T02:25:57;34.90;;;16.10;;
4808;SDS011;2418;49.930;8.606;2024-01-10T02:28:23;32.80;;;14.50;;
4808;SDS011;2418;49.930;8.606;2024-01-10T02:30:50;33.70;;;16.20;;
4808;SDS011;2418;49.930;8.606;2024-01-10T02:33:16;32.00;;;14.85;;
4808;SDS011;2418;49.930;8.606;2024-01-10T02:35:42;32.85;;;14.88;;
4808;SDS011;2418;49.930;8.606;2024-01-10T02:38:08;23.43;;;12.77;;
4808;SDS011;2418;49.930;8.606;2024-01-10T02:40:34;30.55;;;14.80;;
4808;SDS011;2418;49.930;8.606;2024-01-10T02:43:00;26.27;;;14.68;;
4808;SDS011;2418;49.930;8.606;2024-01-10T02:45:26;32.58;;;16.75;;
4808;SDS011;2418;49.930;8.606;2024-01-10T02:47:52;36.85;;;16.45;;
4808;SDS011;2418;49.930;8.606;2024-01-10T02:50:18;34.83;;;15.52;;
4808;SDS011;2418;49.930;8.606;2024-01-10T02:52:44;36.40;;;17.67;;
4808;SDS011;2418;49.930;8.606;2024-01-10T02:55:10;33.47;;;17.45;;
4808;SDS011;2418;49.930;8.606;2024-01-10T02:57:36;29.73;;;15.82;;
4808;SDS011;2418;49.930;8.606;2024-01-10T03:00:02;32.25;;;14.93;;
4808;SDS011;2418;49.930;8.606;2024-01-10T03:02:30;20.83;;;12.52;;
4808;SDS011;2418;49.930;8.606;2024-01-10T03:04:56;24.88;;;15.73;;
4808;SDS011;2418;49.930;8.606;2024-01-10T03:07:22;30.30;;;15.40;;
4808;SDS011;2418;49.930;8.606;2024-01-10T03:09:49;30.98;;;14.45;;
4808;SDS011;2418;49.930;8.606;2024-01-10T03:12:15;30.02;;;14.05;;
4808;SDS011;2418;49.930;8.606;2024-01-10T03:14:41;31.23;;;15.75;;
4808;SDS011;2418;49.930;8.606;2024-01-10T03:17:07;36.85;;;17.52;;
4808;SDS011;2418;49.930;8.606;2024-01-10T03:19:33;32.05;;;16.95;;
4808;SDS011;2418;49.930;8.606;2024-01-10T03:21:59;33.25;;;15.20;;
4808;SDS011;2418;49.930;8.606;2024-01-10T03:24:25;32.60;;;15.80;;
4808;SDS011;2418;49.930;8.606;2024-01-10T03:26:52;37.33;;;17.73;;
4808;SDS011;2418;49.930;8.606;2024-01-10T03:29:18;36.00;;;17.13;;
4808;SDS011;2418;49.930;8.606;2024-01-10T03:31:44;35.13;;;17.42;;
4808;SDS011;2418;49.930;8.606;2024-01-10T03:34:10;30.83;;;16.17;;
4808;SDS011;2418;49.930;8.606;2024-01-10T03:36:36;33.17;;;16.23;;
4808;SDS011;2418;49.930;8.606;2024-01-10T03:39:02;31.05;;;16.50;;
4808;SDS011;2418;49.930;8.606;2024-01-10T03:41:28;30.23;;;16.70;;
4808;SDS011;2418;49.930;8.606;2024-01-10T03:43:54;34.72;;;16.38;;
4808;SDS011;2418;49.930;8.606;2024-01-10T03:46:20;37.40;;;17.60;;
4808;SDS011;2418;49.930;8.606;2024-01-10T03:48:46;33.80;;;17.17;;
4808;SDS011;2418;49.930;8.606;2024-01-10T03:51:16;31.90;;;17.58;;
4808;SDS011;2418;49.930;8.606;2024-01-10T03:53:42;33.43;;;17.80;;
4808;SDS011;2418;49.930;8.606;2024-01-10T03:56:08;33.45;;;16.65;;
4808;SDS011;2418;49.930;8.606;2024-01-10T03:58:35;34.95;;;17.27;;
4808;SDS011;2418;49.930;8.606;2024-01-10T04:01:05;37.30;;;16.48;;
4808;SDS011;2418;49.930;8.606;2024-01-10T04:03:31;39.20;;;16.77;;
4808;SDS011;2418;49.930;8.606;2024-01-10T04:05:57;36.47;;;17.43;;
4808;SDS011;2418;49.930;8.606;2024-01-10T04:08:23;32.38;;;16.92;;
4808;SDS011;2418;49.930;8.606;2024-01-10T04:10:49;37.80;;;16.53;;
4808;SDS011;2418;49.930;8.606;2024-01-10T04:13:15;31.23;;;15.27;;
4808;SDS011;2418;49.930;8.606;2024-01-10T04:15:41;34.90;;;16.77;;
4808;SDS011;2418;49.930;8.606;2024-01-10T04:18:07;34.20;;;16.98;;
4808;SDS011;2418;49.930;8.606;2024-01-10T04:20:33;32.40;;;16.60;;
4808;SDS011;2418;49.930;8.606;2024-01-10T04:22:59;35.92;;;16.55;;
4808;SDS011;2418;49.930;8.606;2024-01-10T04:25:25;32.47;;;16.63;;
4808;SDS011;2418;49.930;8.606;2024-01-10T04:27:51;30.13;;;16.60;;
4808;SDS011;2418;49.930;8.606;2024-01-10T04:30:17;33.88;;;18.08;;
4808;SDS011;2418;49.930;8.606;2024-01-10T04:32:43;35.88;;;17.92;;
4808;SDS011;2418;49.930;8.606;2024-01-10T04:35:09;33.95;;;17.55;;
4808;SDS011;2418;49.930;8.606;2024-01-10T04:37:36;34.30;;;16.85;;
4808;SDS011;2418;49.930;8.606;2024-01-10T04:40:02;33.23;;;16.77;;
4808;SDS011;2418;49.930;8.606;2024-01-10T04:42:29;30.00;;;17.00;;
4808;SDS011;2418;49.930;8.606;2024-01-10T04:44:55;33.88;;;17.35;;
4808;SDS011;2418;49.930;8.606;2024-01-10T04:47:21;35.85;;;18.60;;
4808;SDS011;2418;49.930;8.606;2024-01-10T04:49:47;34.28;;;17.25;;
4808;SDS011;2418;49.930;8.606;2024-01-10T04:52:13;35.10;;;17.95;;
4808;SDS011;2418;49.930;8.606;2024-01-10T04:54:39;30.70;;;16.63;;
4808;SDS011;2418;49.930;8.606;2024-01-10T04:57:05;31.33;;;16.80;;
4808;SDS011;2418;49.930;8.606;2024-01-10T04:59:32;32.83;;;17.17;;
4808;SDS011;2418;49.930;8.606;2024-01-10T05:01:58;35.30;;;17.58;;
4808;SDS011;2418;49.930;8.606;2024-01-10T05:04:24;37.97;;;17.42;;
4808;SDS011;2418;49.930;8.606;2024-01-10T05:06:50;37.08;;;17.67;;
4808;SDS011;2418;49.930;8.606;2024-01-10T05:09:17;37.08;;;18.00;;
4808;SDS011;2418;49.930;8.606;2024-01-10T05:11:43;36.42;;;18.35;;
4808;SDS011;2418;49.930;8.606;2024-01-10T05:14:13;33.50;;;17.40;;
4808;SDS011;2418;49.930;8.606;2024-01-10T05:16:38;34.30;;;16.90;;
4808;SDS011;2418;49.930;8.606;2024-01-10T05:19:04;35.97;;;18.33;;
4808;SDS011;2418;49.930;8.606;2024-01-10T05:21:31;34.63;;;18.80;;
4808;SDS011;2418;49.930;8.606;2024-01-10T05:23:58;34.97;;;18.08;;
4808;SDS011;2418;49.930;8.606;2024-01-10T05:26:24;31.53;;;17.70;;
4808;SDS011;2418;49.930;8.606;2024-01-10T05:28:50;34.30;;;17.08;;
4808;SDS011;2418;49.930;8.606;2024-01-10T05:31:16;39.73;;;17.73;;
4808;SDS011;2418;49.930;8.606;2024-01-10T05:33:42;34.38;;;18.08;;
4808;SDS011;2418;49.930;8.606;2024-01-10T05:36:08;42.20;;;17.67;;
4808;SDS011;2418;49.930;8.606;2024-01-10T05:38:36;36.45;;;17.75;;
4808;SDS011;2418;49.930;8.606;2024-01-10T05:41:02;31.73;;;17.05;;
4808;SDS011;2418;49.930;8.606;2024-01-10T05:43:28;32.90;;;17.03;;
4808;SDS011;2418;49.930;8.606;2024-01-10T05:45:54;34.03;;;17.75;;
4808;SDS011;2418;49.930;8.606;2024-01-10T05:48:20;34.03;;;17.23;;
4808;SDS011;2418;49.930;8.606;2024-01-10T05:50:46;31.45;;;16.67;;
4808;SDS011;2418;49.930;8.606;2024-01-10T05:53:12;34.17;;;16.35;;
4808;SDS011;2418;49.930;8.606;2024-01-10T05:55:42;36.17;;;18.00;;
4808;SDS011;2418;49.930;8.606;2024-01-10T05:58:07;34.15;;;17.20;;
4808;SDS011;2418;49.930;8.606;2024-01-10T06:00:34;36.67;;;16.98;;
4808;SDS011;2418;49.930;8.606;2024-01-10T06:03:00;34.22;;;16.83;;
4808;SDS011;2418;49.930;8.606;2024-01-10T06:05:26;37.47;;;17.70;;
4808;SDS011;2418;49.930;8.606;2024-01-10T06:07:52;33.40;;;17.17;;
4808;SDS011;2418;49.930;8.606;2024-01-10T06:10:18;35.20;;;17.40;;
4808;SDS011;2418;49.930;8.606;2024-01-10T06:12:44;32.55;;;17.15;;
4808;SDS011;2418;49.930;8.606;2024-01-10T06:15:10;41.08;;;17.55;;
4808;SDS011;2418;49.930;8.606;2024-01-10T06:17:36;33.20;;;16.40;;
4808;SDS011;2418;49.930;8.606;2024-01-10T06:20:03;33.55;;;17.23;;
4808;SDS011;2418;49.930;8.606;2024-01-10T06:22:29;37.42;;;16.52;;
4808;SDS011;2418;49.930;8.606;2024-01-10T06:24:55;35.80;;;18.10;;
4808;SDS011;2418;49.930;8.606;2024-01-10T06:27:21;33.78;;;17.55;;
4808;SDS011;2418;49.930;8.606;2024-01-10T06:29:47;32.97;;;16.87;;
4808;SDS011;2418;49.930;8.606;2024-01-10T06:32:13;33.80;;;17.40;;
4808;SDS011;2418;49.930;8.606;2024-01-10T06:34:42;35.00;;;17.27;;
4808;SDS011;2418;49.930;8.606;2024-01-10T06:37:08;33.50;;;17.20;;
4808;SDS011;2418;49.930;8.606;2024-01-10T06:39:34;36.95;;;17.40;;
4808;SDS011;2418;49.930;8.606;2024-01-10T06:42:00;35.78;;;17.35;;
4808;SDS011;2418;49.930;8.606;2024-01-10T06:44:26;35.95;;;16.70;;
4808;SDS011;2418;49.930;8.606;2024-01-10T06:46:54;32.42;;;17.20;;
4808;SDS011;2418;49.930;8.606;2024-01-10T06:49:20;34.85;;;16.42;;
4808;SDS011;2418;49.930;8.606;2024-01-10T06:51:46;33.42;;;17.27;;
4808;SDS011;2418;49.930;8.606;2024-01-10T06:54:12;32.55;;;17.50;;
4808;SDS011;2418;49.930;8.606;2024-01-10T06:56:38;39.80;;;19.40;;
4808;SDS011;2418;49.930;8.606;2024-01-10T06:59:04;34.65;;;17.60;;
4808;SDS011;2418;49.930;8.606;2024-01-10T07:01:30;33.47;;;17.63;;
4808;SDS011;2418;49.930;8.606;2024-01-10T07:03:57;32.10;;;17.00;;
4808;SDS011;2418;49.930;8.606;2024-01-10T07:06:24;33.50;;;17.52;;
4808;SDS011;2418;49.930;8.606;2024-01-10T07:08:50;35.93;;;18.07;;
4808;SDS011;2418;49.930;8.606;2024-01-10T07:11:17;41.75;;;19.65;;
4808;SDS011;2418;49.930;8.606;2024-01-10T07:13:44;36.03;;;18.20;;
4808;SDS011;2418;49.930;8.606;2024-01-10T07:16:10;37.30;;;18.83;;
4808;SDS011;2418;49.930;8.606;2024-01-10T07:18:39;34.03;;;16.75;;
4808;SDS011;2418;49.930;8.606;2024-01-10T07:21:05;35.60;;;17.45;;
4808;SDS011;2418;49.930;8.606;2024-01-10T07:23:31;34.25;;;16.98;;
4808;SDS011;2418;49.930;8.606;2024-01-10T07:25:58;31.70;;;17.85;;
4808;SDS011;2418;49.930;8.606;2024-01-10T07:28:26;35.67;;;17.70;;
4808;SDS011;2418;49.930;8.606;2024-01-10T07:30:52;32.63;;;15.50;;
4808;SDS011;2418;49.930;8.606;2024-01-10T07:33:18;33.92;;;17.27;;
4808;SDS011;2418;49.930;8.606;2024-01-10T07:35:46;35.17;;;17.88;;
4808;SDS011;2418;49.930;8.606;2024-01-10T07:38:12;29.83;;;16.42;;
4808;SDS011;2418;49.930;8.606;2024-01-10T07:40:38;39.95;;;18.40;;
4808;SDS011;2418;49.930;8.606;2024-01-10T07:43:04;34.77;;;17.63;;
4808;SDS011;2418;49.930;8.606;2024-01-10T07:45:31;35.35;;;17.45;;
4808;SDS011;2418;49.930;8.606;2024-01-10T07:47:58;32.03;;;17.00;;
4808;SDS011;2418;49.930;8.606;2024-01-10T07:50:25;38.05;;;18.17;;
4808;SDS011;2418;49.930;8.606;2024-01-10T07:52:53;33.53;;;18.45;;
4808;SDS011;2418;49.930;8.606;2024-01-10T07:55:19;38.42;;;17.52;;
4808;SDS011;2418;49.930;8.606;2024-01-10T07:57:45;34.13;;;18.40;;
4808;SDS011;2418;49.930;8.606;2024-01-10T08:00:11;33.58;;;18.40;;
4808;SDS011;2418;49.930;8.606;2024-01-10T08:02:38;37.10;;;17.03;;
4808;SDS011;2418;49.930;8.606;2024-01-10T08:05:05;37.72;;;19.17;;
4808;SDS011;2418;49.930;8.606;2024-01-10T08:07:33;34.83;;;18.70;;
4808;SDS011;2418;49.930;8.606;2024-01-10T08:10:02;37.03;;;18.88;;
4808;SDS011;2418;49.930;8.606;2024-01-10T08:12:28;34.70;;;17.58;;
4808;SDS011;2418;49.930;8.606;2024-01-10T08:14:54;34.50;;;18.52;;
4808;SDS011;2418;49.930;8.606;2024-01-10T08:17:20;39.67;;;18.50;;
4808;SDS011;2418;49.930;8.606;2024-01-10T08:19:45;37.28;;;18.73;;
4808;SDS011;2418;49.930;8.606;2024-01-10T08:22:11;35.45;;;18.33;;
4808;SDS011;2418;49.930;8.606;2024-01-10T08:24:38;32.60;;;18.58;;
4808;SDS011;2418;49.930;8.606;2024-01-10T08:27:04;38.80;;;18.83;;
4808;SDS011;2418;49.930;8.606;2024-01-10T08:29:30;34.30;;;18.77;;
4808;SDS011;2418;49.930;8.606;2024-01-10T08:31:56;34.28;;;18.75;;
4808;SDS011;2418;49.930;8.606;2024-01-10T08:34:23;35.00;;;17.90;;
4808;SDS011;2418;49.930;8.606;2024-01-10T08:36:49;39.95;;;18.15;;
4808;SDS011;2418;49.930;8.606;2024-01-10T08:39:16;34.35;;;17.92;;
4808;SDS011;2418;49.930;8.606;2024-01-10T08:41:42;37.13;;;19.83;;
4808;SDS011;2418;49.930;8.606;2024-01-10T08:44:11;40.22;;;20.45;;
4808;SDS011;2418;49.930;8.606;2024-01-10T08:46:37;36.20;;;18.80;;
4808;SDS011;2418;49.930;8.606;2024-01-10T08:49:03;43.43;;;19.70;;
4808;SDS011;2418;49.930;8.606;2024-01-10T08:51:29;36.13;;;20.55;;
4808;SDS011;2418;49.930;8.606;2024-01-10T08:53:55;44.97;;;18.17;;
4808;SDS011;2418;49.930;8.606;2024-01-10T08:56:22;38.08;;;19.88;;
4808;SDS011;2418;49.930;8.606;2024-01-10T08:58:48;38.95;;;19.42;;
4808;SDS011;2418;49.930;8.606;2024-01-10T09:01:14;43.13;;;19.50;;
4808;SDS011;2418;49.930;8.606;2024-01-10T09:03:40;39.90;;;19.38;;
4808;SDS011;2418;49.930;8.606;2024-01-10T09:06:06;36.08;;;18.60;;
4808;SDS011;2418;49.930;8.606;2024-01-10T09:08:35;38.10;;;19.80;;
4808;SDS011;2418;49.930;8.606;2024-01-10T09:11:02;39.53;;;20.77;;
4808;SDS011;2418;49.930;8.606;2024-01-10T09:13:28;37.38;;;19.65;;
4808;SDS011;2418;49.930;8.606;2024-01-10T09:15:54;37.15;;;19.33;;
4808;SDS011;2418;49.930;8.606;2024-01-10T09:18:20;34.20;;;19.30;;
4808;SDS011;2418;49.930;8.606;2024-01-10T09:20:46;37.60;;;18.25;;
4808;SDS011;2418;49.930;8.606;2024-01-10T09:23:15;32.42;;;18.75;;
4808;SDS011;2418;49.930;8.606;2024-01-10T09:25:41;38.35;;;19.20;;
4808;SDS011;2418;49.930;8.606;2024-01-10T09:28:07;36.38;;;18.73;;
4808;SDS011;2418;49.930;8.606;2024-01-10T09:30:33;37.83;;;18.42;;
4808;SDS011;2418;49.930;8.606;2024-01-10T09:33:00;39.83;;;18.90;;
4808;SDS011;2418;49.930;8.606;2024-01-10T09:35:26;38.38;;;18.23;;
4808;SDS011;2418;49.930;8.606;2024-01-10T09:37:57;39.60;;;18.85;;
4808;SDS011;2418;49.930;8.606;2024-01-10T09:40:23;31.77;;;17.88;;
4808;SDS011;2418;49.930;8.606;2024-01-10T09:42:52;32.13;;;16.33;;
4808;SDS011;2418;49.930;8.606;2024-01-10T09:45:22;32.53;;;16.17;;
4808;SDS011;2418;49.930;8.606;2024-01-10T09:47:51;35.78;;;17.52;;
4808;SDS011;2418;49.930;8.606;2024-01-10T09:50:18;38.73;;;16.87;;
4808;SDS011;2418;49.930;8.606;2024-01-10T09:52:51;36.72;;;17.00;;
4808;SDS011;2418;49.930;8.606;2024-01-10T09:55:19;29.05;;;16.70;;
4808;SDS011;2418;49.930;8.606;2024-01-10T09:57:46;33.65;;;16.58;;
4808;SDS011;2418;49.930;8.606;2024-01-10T10:00:12;33.17;;;17.35;;
4808;SDS011;2418;49.930;8.606;2024-01-10T10:02:40;34.00;;;18.70;;
4808;SDS011;2418;49.930;8.606;2024-01-10T10:05:13;35.05;;;18.30;;
4808;SDS011;2418;49.930;8.606;2024-01-10T10:07:44;32.17;;;17.02;;
4808;SDS011;2418;49.930;8.606;2024-01-10T10:10:10;34.33;;;16.95;;
4808;SDS011;2418;49.930;8.606;2024-01-10T10:15:13;36.83;;;19.27;;
4808;SDS011;2418;49.930;8.606;2024-01-10T10:17:39;32.93;;;17.00;;
4808;SDS011;2418;49.930;8.606;2024-01-10T10:20:11;34.22;;;18.00;;
4808;SDS011;2418;49.930;8.606;2024-01-10T10:22:38;33.72;;;17.92;;
4808;SDS011;2418;49.930;8.606;2024-01-10T10:25:04;34.42;;;18.42;;
4808;SDS011;2418;49.930;8.606;2024-01-10T10:27:30;35.78;;;17.70;;
4808;SDS011;2418;49.930;8.606;2024-01-10T10:29:57;36.42;;;17.75;;
4808;SDS011;2418;49.930;8.606;2024-01-10T10:32:23;34.05;;;18.10;;
4808;SDS011;2418;49.930;8.606;2024-01-10T10:34:49;39.85;;;18.55;;
4808;SDS011;2418;49.930;8.606;2024-01-10T10:37:15;41.22;;;17.05;;
4808;SDS011;2418;49.930;8.606;2024-01-10T10:39:41;28.77;;;16.65;;
4808;SDS011;2418;49.930;8.606;2024-01-10T10:42:07;31.55;;;17.10;;
4808;SDS011;2418;49.930;8.606;2024-01-10T10:44:33;29.80;;;16.25;;
4808;SDS011;2418;49.930;8.606;2024-01-10T10:47:04;34.03;;;17.70;;
4808;SDS011;2418;49.930;8.606;2024-01-10T10:49:31;31.00;;;16.27;;
4808;SDS011;2418;49.930;8.606;2024-01-10T10:51:58;30.25;;;16.70;;
4808;SDS011;2418;49.930;8.606;2024-01-10T10:54:28;32.05;;;17.27;;
4808;SDS011;2418;49.930;8.606;2024-01-10T10:56:57;35.70;;;17.33;;
4808;SDS011;2418;49.930;8.606;2024-01-10T10:59:23;31.45;;;16.85;;
4808;SDS011;2418;49.930;8.606;2024-01-10T11:01:52;33.15;;;16.75;;
4808;SDS011;2418;49.930;8.606;2024-01-10T11:04:19;33.47;;;17.13;;
4808;SDS011;2418;49.930;8.606;2024-01-10T11:06:46;34.17;;;16.02;;
4808;SDS011;2418;49.930;8.606;2024-01-10T11:09:13;31.00;;;16.48;;
4808;SDS011;2418;49.930;8.606;2024-01-10T11:12:02;30.80;;;14.23;;
4808;SDS011;2418;49.930;8.606;2024-01-10T11:14:37;27.98;;;16.23;;
4808;SDS011;2418;49.930;8.606;2024-01-10T11:17:08;31.70;;;16.30;;
4808;SDS011;2418;49.930;8.606;2024-01-10T11:25:04;27.88;;;15.35;;
4808;SDS011;2418;49.930;8.606;2024-01-10T11:27:30;35.38;;;15.98;;
4808;SDS011;2418;49.930;8.606;2024-01-10T11:29:56;34.08;;;15.93;;
4808;SDS011;2418;49.930;8.606;2024-01-10T11:32:24;27.40;;;14.30;;
4808;SDS011;2418;49.930;8.606;2024-01-10T11:37:19;25.63;;;14.77;;
4808;SDS011;2418;49.930;8.606;2024-01-10T11:39:45;30.80;;;13.88;;
4808;SDS011;2418;49.930;8.606;2024-01-10T11:42:11;31.95;;;15.45;;
4808;SDS011;2418;49.930;8.606;2024-01-10T11:44:47;22.60;;;13.40;;
4808;SDS011;2418;49.930;8.606;2024-01-10T11:47:16;28.25;;;13.65;;
4808;SDS011;2418;49.930;8.606;2024-01-10T11:50:19;31.55;;;14.82;;
4808;SDS011;2418;49.930;8.606;2024-01-10T11:52:38;28.25;;;13.57;;
4808;SDS011;2418;49.930;8.606;2024-01-10T11:55:04;28.77;;;16.10;;
4808;SDS011;2418;49.930;8.606;2024-01-10T11:57:32;32.92;;;16.17;;
4808;SDS011;2418;49.930;8.606;2024-01-10T11:59:59;27.63;;;15.65;;
4808;SDS011;2418;49.930;8.606;2024-01-10T12:02:26;28.83;;;16.05;;
4808;SDS011;2418;49.930;8.606;2024-01-10T12:04:53;30.17;;;16.23;;
4808;SDS011;2418;49.930;8.606;2024-01-10T12:07:19;29.70;;;14.65;;
4808;SDS011;2418;49.930;8.606;2024-01-10T12:09:46;31.70;;;15.93;;
4808;SDS011;2418;49.930;8.606;2024-01-10T12:12:12;31.75;;;15.57;;
4808;SDS011;2418;49.930;8.606;2024-01-10T12:14:39;26.95;;;13.90;;
4808;SDS011;2418;49.930;8.606;2024-01-10T12:17:06;23.25;;;14.00;;
4808;SDS011;2418;49.930;8.606;2024-01-10T12:19:35;29.90;;;15.03;;
4808;SDS011;2418;49.930;8.606;2024-01-10T12:22:05;24.33;;;14.02;;
4808;SDS011;2418;49.930;8.606;2024-01-10T12:24:31;26.35;;;13.98;;
4808;SDS011;2418;49.930;8.606;2024-01-10T12:26:57;28.60;;;15.63;;
4808;SDS011;2418;49.930;8.606;2024-01-10T12:29:23;26.02;;;14.40;;
4808;SDS011;2418;49.930;8.606;2024-01-10T12:31:50;31.55;;;16.13;;
4808;SDS011;2418;49.930;8.606;2024-01-10T12:34:16;30.05;;;14.63;;
4808;SDS011;2418;49.930;8.606;2024-01-10T12:36:43;28.10;;;13.52;;
4808;SDS011;2418;49.930;8.606;2024-01-10T12:39:09;31.27;;;14.40;;
4808;SDS011;2418;49.930;8.606;2024-01-10T12:41:35;26.77;;;14.13;;
4808;SDS011;2418;49.930;8.606;2024-01-10T12:44:02;25.45;;;14.00;;
4808;SDS011;2418;49.930;8.606;2024-01-10T12:46:31;24.27;;;14.02;;
4808;SDS011;2418;49.930;8.606;2024-01-10T12:49:01;28.70;;;13.70;;
4808;SDS011;2418;49.930;8.606;2024-01-10T12:51:30;27.55;;;13.90;;
4808;SDS011;2418;49.930;8.606;2024-01-10T12:53:56;26.05;;;13.57;;
4808;SDS011;2418;49.930;8.606;2024-01-10T12:56:24;25.65;;;14.13;;
4808;SDS011;2418;49.930;8.606;2024-01-10T12:58:49;30.30;;;14.60;;
4808;SDS011;2418;49.930;8.606;2024-01-10T13:01:15;24.13;;;15.38;;
4808;SDS011;2418;49.930;8.606;2024-01-10T13:03:42;27.95;;;15.38;;
4808;SDS011;2418;49.930;8.606;2024-01-10T13:06:08;31.38;;;16.00;;
4808;SDS011;2418;49.930;8.606;2024-01-10T13:08:35;28.65;;;14.98;;
4808;SDS011;2418;49.930;8.606;2024-01-10T13:11:01;26.98;;;12.60;;
4808;SDS011;2418;49.930;8.606;2024-01-10T13:13:33;27.35;;;13.60;;
4808;SDS011;2418;49.930;8.606;2024-01-10T13:15:59;24.33;;;14.50;;
4808;SDS011;2418;49.930;8.606;2024-01-10T13:18:26;27.45;;;14.20;;
4808;SDS011;2418;49.930;8.606;2024-01-10T13:20:53;24.38;;;13.30;;
4808;SDS011;2418;49.930;8.606;2024-01-10T13:23:19;26.63;;;13.85;;
4808;SDS011;2418;49.930;8.606;2024-01-10T13:25:48;23.63;;;14.30;;
4808;SDS011;2418;49.930;8.606;2024-01-10T13:28:14;25.83;;;14.03;;
4808;SDS011;2418;49.930;8.606;2024-01-10T13:30:40;25.92;;;13.18;;
4808;SDS011;2418;49.930;8.606;2024-01-10T13:33:07;26.35;;;14.15;;
4808;SDS011;2418;49.930;8.606;2024-01-10T13:35:34;28.10;;;15.32;;
4808;SDS011;2418;49.930;8.606;2024-01-10T13:38:00;31.92;;;14.55;;
4808;SDS011;2418;49.930;8.606;2024-01-10T13:40:26;26.15;;;14.30;;
4808;SDS011;2418;49.930;8.606;2024-01-10T13:42:52;33.97;;;15.02;;
4808;SDS011;2418;49.930;8.606;2024-01-10T13:45:19;27.02;;;14.20;;
4808;SDS011;2418;49.930;8.606;2024-01-10T13:47:45;25.42;;;14.65;;
4808;SDS011;2418;49.930;8.606;2024-01-10T13:50:12;26.48;;;13.80;;
4808;SDS011;2418;49.930;8.606;2024-01-10T13:52:38;30.88;;;15.30;;
4808;SDS011;2418;49.930;8.606;2024-01-10T13:55:04;29.58;;;14.80;;
4808;SDS011;2418;49.930;8.606;2024-01-10T13:57:30;25.65;;;14.70;;
4808;SDS011;2418;49.930;8.606;2024-01-10T14:00:00;26.63;;;13.63;;
4808;SDS011;2418;49.930;8.606;2024-01-10T14:02:26;26.63;;;13.67;;
4808;SDS011;2418;49.930;8.606;2024-01-10T14:04:52;26.83;;;14.88;;
4808;SDS011;2418;49.930;8.606;2024-01-10T14:07:22;25.48;;;14.35;;
4808;SDS011;2418;49.930;8.606;2024-01-10T14:09:49;21.50;;;13.73;;
4808;SDS011;2418;49.930;8.606;2024-01-10T14:12:15;23.93;;;14.77;;
4808;SDS011;2418;49.930;8.606;2024-01-10T14:14:41;26.13;;;13.40;;
4808;SDS011;2418;49.930;8.606;2024-01-10T14:17:09;28.83;;;14.75;;
4808;SDS011;2418;49.930;8.606;2024-01-10T14:19:35;26.13;;;14.73;;
4808;SDS011;2418;49.930;8.606;2024-01-10T14:22:01;24.95;;;13.27;;
4808;SDS011;2418;49.930;8.606;2024-01-10T14:24:27;23.35;;;13.68;;
4808;SDS011;2418;49.930;8.606;2024-01-10T14:26:53;21.95;;;13.80;;
4808;SDS011;2418;49.930;8.606;2024-01-10T14:29:19;24.00;;;14.27;;
4808;SDS011;2418;49.930;8.606;2024-01-10T14:31:47;27.95;;;13.88;;
4808;SDS011;2418;49.930;8.606;2024-01-10T14:34:14;30.30;;;14.90;;
4808;SDS011;2418;49.930;8.606;2024-01-10T14:36:40;22.27;;;13.40;;
4808;SDS011;2418;49.930;8.606;2024-01-10T14:39:06;30.90;;;14.75;;
4808;SDS011;2418;49.930;8.606;2024-01-10T14:41:32;26.33;;;14.53;;
4808;SDS011;2418;49.930;8.606;2024-01-10T14:44:02;27.08;;;14.82;;
4808;SDS011;2418;49.930;8.606;2024-01-10T14:46:28;26.03;;;14.13;;
4808;SDS011;2418;49.930;8.606;2024-01-10T14:48:54;28.90;;;15.80;;
4808;SDS011;2418;49.930;8.606;2024-01-10T14:51:20;27.27;;;15.50;;
4808;SDS011;2418;49.930;8.606;2024-01-10T14:53:46;26.77;;;14.18;;
4808;SDS011;2418;49.930;8.606;2024-01-10T14:56:12;30.60;;;14.80;;